sensor_id;sensor_type;location;lat;lon;timestamp;P1;durP1;ratioP1;P2;durP2;ratioP2
30247;SDS011;17063;50.892;4.702;2023-07-02T00:00:20;25.93;;;11.17;;
30247;SDS011;17063;50.892;4.702;2023-07-02T00:02:48;26.63;;;11.23;;
30247;SDS011;17063;50.892;4.702;2023-07-02T00:05:15;24.20;;;11.03;;
30247;SDS011;17063;50.892;4.702;2023-07-02T00:07:43;26.40;;;11.60;;
30247;SDS011;17063;50.892;4.702;2023-07-02T00:10:10;30.37;;;12.17;;
30247;SDS011;17063;50.892;4.702;2023-07-02T00:12:39;24.80;;;10.57;;
30247;SDS011;17063;50.892;4.702;2023-07-02T00:15:06;25.60;;;11.50;;
30247;SDS011;17063;50.892;4.702;2023-07-02T00:17:34;23.17;;;11.60;;
30247;SDS011;17063;50.892;4.702;2023-07-02T00:20:01;26.87;;;12.07;;
30247;SDS011;17063;50.892;4.702;2023-07-02T00:22:35;33.13;;;13.07;;
30247;SDS011;17063;50.892;4.702;2023-07-02T00:25:03;25.50;;;12.33;;
30247;SDS011;17063;50.892;4.702;2023-07-02T00:27:30;27.57;;;12.00;;
30247;SDS011;17063;50.892;4.702;2023-07-02T00:29:57;26.73;;;11.90;;
30247;SDS011;17063;50.892;4.702;2023-07-02T00:32:24;34.57;;;13.83;;
30247;SDS011;17063;50.892;4.702;2023-07-02T00:34:58;27.33;;;12.60;;
30247;SDS011;17063;50.892;4.702;2023-07-02T00:37:26;28.30;;;12.40;;
30247;SDS011;17063;50.892;4.702;2023-07-02T00:39:53;29.03;;;12.23;;
30247;SDS011;17063;50.892;4.702;2023-07-02T00:42:20;27.63;;;12.63;;
30247;SDS011;17063;50.892;4.702;2023-07-02T00:44:47;31.80;;;13.50;;
30247;SDS011;17063;50.892;4.702;2023-07-02T00:47:13;29.87;;;13.30;;
30247;SDS011;17063;50.892;4.702;2023-07-02T00:49:43;32.53;;;13.37;;
30247;SDS011;17063;50.892;4.702;2023-07-02T00:52:10;29.33;;;12.33;;
30247;SDS011;17063;50.892;4.702;2023-07-02T00:54:38;33.17;;;13.17;;
30247;SDS011;17063;50.892;4.702;2023-07-02T00:57:06;26.60;;;13.20;;
30247;SDS011;17063;50.892;4.702;2023-07-02T00:59:34;37.07;;;13.43;;
30247;SDS011;17063;50.892;4.702;2023-07-02T01:02:02;31.10;;;13.10;;
30247;SDS011;17063;50.892;4.702;2023-07-02T01:04:29;27.73;;;13.93;;
30247;SDS011;17063;50.892;4.702;2023-07-02T01:06:57;32.57;;;13.30;;
30247;SDS011;17063;50.892;4.702;2023-07-02T01:09:24;28.13;;;13.10;;
30247;SDS011;17063;50.892;4.702;2023-07-02T01:11:54;32.87;;;14.10;;
30247;SDS011;17063;50.892;4.702;2023-07-02T01:14:30;29.37;;;13.57;;
30247;SDS011;17063;50.892;4.702;2023-07-02T01:16:59;28.07;;;14.13;;
30247;SDS011;17063;50.892;4.702;2023-07-02T01:22:07;32.73;;;13.97;;
30247;SDS011;17063;50.892;4.702;2023-07-02T01:24:36;38.50;;;15.37;;
30247;SDS011;17063;50.892;4.702;2023-07-02T01:27:03;34.30;;;14.77;;
30247;SDS011;17063;50.892;4.702;2023-07-02T01:29:30;32.93;;;14.50;;
30247;SDS011;17063;50.892;4.702;2023-07-02T01:31:58;33.83;;;14.47;;
30247;SDS011;17063;50.892;4.702;2023-07-02T01:34:25;35.97;;;14.00;;
30247;SDS011;17063;50.892;4.702;2023-07-02T01:36:52;36.37;;;15.57;;
30247;SDS011;17063;50.892;4.702;2023-07-02T01:39:19;30.47;;;14.90;;
30247;SDS011;17063;50.892;4.702;2023-07-02T01:41:55;35.50;;;14.93;;
30247;SDS011;17063;50.892;4.702;2023-07-02T01:44:22;35.00;;;15.97;;
30247;SDS011;17063;50.892;4.702;2023-07-02T01:46:49;34.03;;;15.00;;
30247;SDS011;17063;50.892;4.702;2023-07-02T01:49:16;39.83;;;15.90;;
30247;SDS011;17063;50.892;4.702;2023-07-02T01:51:50;33.27;;;15.60;;
30247;SDS011;17063;50.892;4.702;2023-07-02T01:54:18;35.93;;;15.67;;
30247;SDS011;17063;50.892;4.702;2023-07-02T01:56:45;36.37;;;15.13;;
30247;SDS011;17063;50.892;4.702;2023-07-02T01:59:12;39.50;;;15.60;;
30247;SDS011;17063;50.892;4.702;2023-07-02T02:01:39;39.73;;;15.53;;
30247;SDS011;17063;50.892;4.702;2023-07-02T02:04:07;41.33;;;16.00;;
30247;SDS011;17063;50.892;4.702;2023-07-02T02:06:35;40.80;;;17.03;;
30247;SDS011;17063;50.892;4.702;2023-07-02T02:09:04;38.53;;;15.50;;
30247;SDS011;17063;50.892;4.702;2023-07-02T02:11:33;36.93;;;16.03;;
30247;SDS011;17063;50.892;4.702;2023-07-02T02:14:00;32.70;;;14.83;;
30247;SDS011;17063;50.892;4.702;2023-07-02T02:16:30;40.43;;;16.57;;
30247;SDS011;17063;50.892;4.702;2023-07-02T02:18:59;41.00;;;16.10;;
30247;SDS011;17063;50.892;4.702;2023-07-02T02:21:26;35.17;;;15.30;;
30247;SDS011;17063;50.892;4.702;2023-07-02T02:23:54;37.87;;;16.03;;
30247;SDS011;17063;50.892;4.702;2023-07-02T02:26:21;41.30;;;16.47;;
30247;SDS011;17063;50.892;4.702;2023-07-02T02:28:48;42.03;;;16.87;;
30247;SDS011;17063;50.892;4.702;2023-07-02T02:31:17;42.30;;;16.60;;
30247;SDS011;17063;50.892;4.702;2023-07-02T02:33:44;44.93;;;17.37;;
30247;SDS011;17063;50.892;4.702;2023-07-02T02:36:12;35.40;;;16.07;;
30247;SDS011;17063;50.892;4.702;2023-07-02T02:38:38;43.83;;;17.87;;
30247;SDS011;17063;50.892;4.702;2023-07-02T02:41:05;40.47;;;17.50;;
30247;SDS011;17063;50.892;4.702;2023-07-02T02:43:42;43.70;;;16.70;;
30247;SDS011;17063;50.892;4.702;2023-07-02T02:46:12;35.30;;;16.67;;
30247;SDS011;17063;50.892;4.702;2023-07-02T02:48:46;40.03;;;17.33;;
30247;SDS011;17063;50.892;4.702;2023-07-02T02:51:13;42.47;;;18.53;;
30247;SDS011;17063;50.892;4.702;2023-07-02T02:53:40;38.10;;;17.23;;
30247;SDS011;17063;50.892;4.702;2023-07-02T02:56:07;39.00;;;16.97;;
30247;SDS011;17063;50.892;4.702;2023-07-02T02:58:35;38.37;;;17.40;;
30247;SDS011;17063;50.892;4.702;2023-07-02T03:01:01;42.50;;;17.03;;
30247;SDS011;17063;50.892;4.702;2023-07-02T03:03:28;40.47;;;17.47;;
30247;SDS011;17063;50.892;4.702;2023-07-02T03:05:55;36.50;;;16.23;;
30247;SDS011;17063;50.892;4.702;2023-07-02T03:08:22;38.57;;;16.70;;
30247;SDS011;17063;50.892;4.702;2023-07-02T03:10:49;33.90;;;17.00;;
30247;SDS011;17063;50.892;4.702;2023-07-02T03:13:16;46.33;;;17.87;;
30247;SDS011;17063;50.892;4.702;2023-07-02T03:15:43;42.43;;;17.13;;
30247;SDS011;17063;50.892;4.702;2023-07-02T03:18:10;40.33;;;19.03;;
30247;SDS011;17063;50.892;4.702;2023-07-02T03:20:37;38.60;;;16.67;;
30247;SDS011;17063;50.892;4.702;2023-07-02T03:23:03;46.17;;;17.77;;
30247;SDS011;17063;50.892;4.702;2023-07-02T03:25:30;43.60;;;17.97;;
30247;SDS011;17063;50.892;4.702;2023-07-02T03:27:58;40.27;;;17.33;;
30247;SDS011;17063;50.892;4.702;2023-07-02T03:30:24;47.07;;;19.23;;
30247;SDS011;17063;50.892;4.702;2023-07-02T03:32:52;43.93;;;18.40;;
30247;SDS011;17063;50.892;4.702;2023-07-02T03:35:19;48.60;;;16.77;;
30247;SDS011;17063;50.892;4.702;2023-07-02T03:37:46;47.77;;;18.77;;
30247;SDS011;17063;50.892;4.702;2023-07-02T03:40:13;42.63;;;18.60;;
30247;SDS011;17063;50.892;4.702;2023-07-02T03:42:39;47.60;;;17.33;;
30247;SDS011;17063;50.892;4.702;2023-07-02T03:45:06;40.27;;;18.33;;
30247;SDS011;17063;50.892;4.702;2023-07-02T03:47:34;43.03;;;18.53;;
30247;SDS011;17063;50.892;4.702;2023-07-02T03:50:01;44.80;;;18.40;;
30247;SDS011;17063;50.892;4.702;2023-07-02T03:52:28;48.37;;;19.30;;
30247;SDS011;17063;50.892;4.702;2023-07-02T03:54:55;43.50;;;18.67;;
30247;SDS011;17063;50.892;4.702;2023-07-02T03:57:21;44.33;;;18.80;;
30247;SDS011;17063;50.892;4.702;2023-07-02T03:59:48;47.30;;;19.10;;
30247;SDS011;17063;50.892;4.702;2023-07-02T04:02:15;43.43;;;18.40;;
30247;SDS011;17063;50.892;4.702;2023-07-02T04:04:42;48.40;;;18.03;;
30247;SDS011;17063;50.892;4.702;2023-07-02T04:07:09;41.07;;;17.73;;
30247;SDS011;17063;50.892;4.702;2023-07-02T04:09:36;45.20;;;19.63;;
30247;SDS011;17063;50.892;4.702;2023-07-02T04:12:03;50.60;;;19.23;;
30247;SDS011;17063;50.892;4.702;2023-07-02T04:14:31;46.90;;;19.33;;
30247;SDS011;17063;50.892;4.702;2023-07-02T04:16:57;45.50;;;19.27;;
30247;SDS011;17063;50.892;4.702;2023-07-02T04:19:24;44.57;;;18.70;;
30247;SDS011;17063;50.892;4.702;2023-07-02T04:21:52;51.83;;;18.87;;
30247;SDS011;17063;50.892;4.702;2023-07-02T04:24:19;47.60;;;19.80;;
30247;SDS011;17063;50.892;4.702;2023-07-02T04:26:46;42.27;;;18.40;;
30247;SDS011;17063;50.892;4.702;2023-07-02T04:29:33;48.83;;;18.80;;
30247;SDS011;17063;50.892;4.702;2023-07-02T04:32:00;47.03;;;18.80;;
30247;SDS011;17063;50.892;4.702;2023-07-02T04:34:27;41.53;;;19.23;;
30247;SDS011;17063;50.892;4.702;2023-07-02T04:36:53;47.53;;;19.23;;
30247;SDS011;17063;50.892;4.702;2023-07-02T04:39:20;49.67;;;20.10;;
30247;SDS011;17063;50.892;4.702;2023-07-02T04:41:47;51.17;;;20.53;;
30247;SDS011;17063;50.892;4.702;2023-07-02T04:44:18;50.13;;;20.80;;
30247;SDS011;17063;50.892;4.702;2023-07-02T04:46:53;52.60;;;18.70;;
30247;SDS011;17063;50.892;4.702;2023-07-02T04:49:19;53.03;;;19.20;;
30247;SDS011;17063;50.892;4.702;2023-07-02T04:51:47;49.97;;;20.53;;
30247;SDS011;17063;50.892;4.702;2023-07-02T04:54:14;46.33;;;18.17;;
30247;SDS011;17063;50.892;4.702;2023-07-02T04:56:41;48.97;;;19.20;;
30247;SDS011;17063;50.892;4.702;2023-07-02T04:59:08;54.17;;;20.30;;
30247;SDS011;17063;50.892;4.702;2023-07-02T05:01:35;46.03;;;19.67;;
30247;SDS011;17063;50.892;4.702;2023-07-02T05:04:04;48.63;;;19.27;;
30247;SDS011;17063;50.892;4.702;2023-07-02T05:06:32;42.97;;;18.67;;
30247;SDS011;17063;50.892;4.702;2023-07-02T05:08:59;50.97;;;19.53;;
30247;SDS011;17063;50.892;4.702;2023-07-02T05:11:26;46.73;;;20.67;;
30247;SDS011;17063;50.892;4.702;2023-07-02T05:13:53;56.17;;;21.23;;
30247;SDS011;17063;50.892;4.702;2023-07-02T05:16:20;48.20;;;20.27;;
30247;SDS011;17063;50.892;4.702;2023-07-02T05:18:47;54.80;;;20.93;;
30247;SDS011;17063;50.892;4.702;2023-07-02T05:21:17;47.10;;;19.63;;
30247;SDS011;17063;50.892;4.702;2023-07-02T05:23:44;52.50;;;20.70;;
30247;SDS011;17063;50.892;4.702;2023-07-02T05:26:11;50.03;;;20.10;;
30247;SDS011;17063;50.892;4.702;2023-07-02T05:28:38;53.53;;;19.50;;
30247;SDS011;17063;50.892;4.702;2023-07-02T05:31:05;52.43;;;21.00;;
30247;SDS011;17063;50.892;4.702;2023-07-02T05:33:32;42.70;;;20.77;;
30247;SDS011;17063;50.892;4.702;2023-07-02T05:36:00;52.80;;;20.50;;
30247;SDS011;17063;50.892;4.702;2023-07-02T05:38:27;51.53;;;20.50;;
30247;SDS011;17063;50.892;4.702;2023-07-02T05:40:54;50.80;;;19.90;;
30247;SDS011;17063;50.892;4.702;2023-07-02T05:43:21;45.83;;;19.40;;
30247;SDS011;17063;50.892;4.702;2023-07-02T05:45:47;48.50;;;20.40;;
30247;SDS011;17063;50.892;4.702;2023-07-02T05:48:16;50.63;;;19.97;;
30247;SDS011;17063;50.892;4.702;2023-07-02T05:50:43;45.97;;;19.73;;
30247;SDS011;17063;50.892;4.702;2023-07-02T05:53:09;50.60;;;20.80;;
30247;SDS011;17063;50.892;4.702;2023-07-02T05:55:37;44.67;;;19.87;;
30247;SDS011;17063;50.892;4.702;2023-07-02T05:58:05;48.43;;;19.90;;
30247;SDS011;17063;50.892;4.702;2023-07-02T06:00:33;43.23;;;19.27;;
30247;SDS011;17063;50.892;4.702;2023-07-02T06:03:01;43.13;;;18.43;;
30247;SDS011;17063;50.892;4.702;2023-07-02T06:05:28;52.77;;;20.23;;
30247;SDS011;17063;50.892;4.702;2023-07-02T06:07:55;45.83;;;19.57;;
30247;SDS011;17063;50.892;4.702;2023-07-02T06:10:22;44.60;;;19.53;;
30247;SDS011;17063;50.892;4.702;2023-07-02T06:12:49;55.73;;;20.50;;
30247;SDS011;17063;50.892;4.702;2023-07-02T06:15:16;48.10;;;19.07;;
30247;SDS011;17063;50.892;4.702;2023-07-02T06:17:44;44.47;;;19.03;;
30247;SDS011;17063;50.892;4.702;2023-07-02T06:20:11;44.07;;;19.17;;
30247;SDS011;17063;50.892;4.702;2023-07-02T06:22:38;47.83;;;17.93;;
30247;SDS011;17063;50.892;4.702;2023-07-02T06:25:07;44.17;;;18.47;;
30247;SDS011;17063;50.892;4.702;2023-07-02T06:27:34;40.27;;;17.67;;
30247;SDS011;17063;50.892;4.702;2023-07-02T06:30:01;45.10;;;17.53;;
30247;SDS011;17063;50.892;4.702;2023-07-02T06:32:28;43.70;;;18.07;;
30247;SDS011;17063;50.892;4.702;2023-07-02T06:34:56;42.10;;;17.97;;
30247;SDS011;17063;50.892;4.702;2023-07-02T06:37:22;43.17;;;18.20;;
30247;SDS011;17063;50.892;4.702;2023-07-02T06:39:49;49.07;;;18.17;;
30247;SDS011;17063;50.892;4.702;2023-07-02T06:42:17;43.30;;;18.27;;
30247;SDS011;17063;50.892;4.702;2023-07-02T06:44:44;48.17;;;19.07;;
30247;SDS011;17063;50.892;4.702;2023-07-02T06:47:10;41.23;;;17.63;;
30247;SDS011;17063;50.892;4.702;2023-07-02T06:49:37;42.77;;;18.53;;
30247;SDS011;17063;50.892;4.702;2023-07-02T06:52:05;46.00;;;16.60;;
30247;SDS011;17063;50.892;4.702;2023-07-02T06:54:32;43.87;;;19.17;;
30247;SDS011;17063;50.892;4.702;2023-07-02T06:57:00;42.57;;;17.53;;
30247;SDS011;17063;50.892;4.702;2023-07-02T06:59:27;36.13;;;17.13;;
30247;SDS011;17063;50.892;4.702;2023-07-02T07:01:54;42.47;;;17.37;;
30247;SDS011;17063;50.892;4.702;2023-07-02T07:04:21;41.97;;;16.20;;
30247;SDS011;17063;50.892;4.702;2023-07-02T07:06:48;40.33;;;17.57;;
30247;SDS011;17063;50.892;4.702;2023-07-02T07:09:15;43.33;;;16.93;;
30247;SDS011;17063;50.892;4.702;2023-07-02T07:11:42;42.67;;;16.33;;
30247;SDS011;17063;50.892;4.702;2023-07-02T07:14:09;34.23;;;15.30;;
30247;SDS011;17063;50.892;4.702;2023-07-02T07:16:36;41.93;;;14.73;;
30247;SDS011;17063;50.892;4.702;2023-07-02T07:19:03;32.47;;;14.20;;
30247;SDS011;17063;50.892;4.702;2023-07-02T07:21:30;31.27;;;12.93;;
30247;SDS011;17063;50.892;4.702;2023-07-02T07:23:57;25.93;;;12.40;;
30247;SDS011;17063;50.892;4.702;2023-07-02T07:26:24;28.67;;;12.33;;
30247;SDS011;17063;50.892;4.702;2023-07-02T07:28:51;25.50;;;11.60;;
30247;SDS011;17063;50.892;4.702;2023-07-02T07:31:18;25.53;;;11.53;;
30247;SDS011;17063;50.892;4.702;2023-07-02T07:33:45;31.97;;;11.23;;
30247;SDS011;17063;50.892;4.702;2023-07-02T07:36:12;25.77;;;11.07;;
30247;SDS011;17063;50.892;4.702;2023-07-02T07:38:44;28.53;;;10.87;;
30247;SDS011;17063;50.892;4.702;2023-07-02T07:41:11;27.77;;;11.07;;
30247;SDS011;17063;50.892;4.702;2023-07-02T07:43:38;25.43;;;10.57;;
30247;SDS011;17063;50.892;4.702;2023-07-02T07:46:05;28.93;;;11.47;;
30247;SDS011;17063;50.892;4.702;2023-07-02T07:48:32;27.93;;;11.57;;
30247;SDS011;17063;50.892;4.702;2023-07-02T07:50:59;23.80;;;10.63;;
30247;SDS011;17063;50.892;4.702;2023-07-02T07:53:26;27.83;;;11.17;;
30247;SDS011;17063;50.892;4.702;2023-07-02T07:55:53;26.37;;;10.60;;
30247;SDS011;17063;50.892;4.702;2023-07-02T07:58:20;26.20;;;9.40;;
30247;SDS011;17063;50.892;4.702;2023-07-02T08:00:46;26.10;;;9.70;;
30247;SDS011;17063;50.892;4.702;2023-07-02T08:03:14;23.13;;;10.27;;
30247;SDS011;17063;50.892;4.702;2023-07-02T08:05:41;21.60;;;8.87;;
30247;SDS011;17063;50.892;4.702;2023-07-02T08:08:08;17.70;;;8.00;;
30247;SDS011;17063;50.892;4.702;2023-07-02T08:10:35;18.20;;;7.50;;
30247;SDS011;17063;50.892;4.702;2023-07-02T08:13:02;16.03;;;6.43;;
30247;SDS011;17063;50.892;4.702;2023-07-02T08:15:32;18.50;;;7.47;;
30247;SDS011;17063;50.892;4.702;2023-07-02T08:17:59;18.10;;;7.17;;
30247;SDS011;17063;50.892;4.702;2023-07-02T08:20:26;17.03;;;7.20;;
30247;SDS011;17063;50.892;4.702;2023-07-02T08:22:53;15.00;;;6.77;;
30247;SDS011;17063;50.892;4.702;2023-07-02T08:25:20;11.67;;;5.50;;
30247;SDS011;17063;50.892;4.702;2023-07-02T08:27:48;17.07;;;6.57;;
30247;SDS011;17063;50.892;4.702;2023-07-02T08:30:15;14.57;;;6.03;;
30247;SDS011;17063;50.892;4.702;2023-07-02T08:32:42;20.67;;;6.37;;
30247;SDS011;17063;50.892;4.702;2023-07-02T08:35:09;14.90;;;6.77;;
30247;SDS011;17063;50.892;4.702;2023-07-02T08:37:38;11.40;;;5.97;;
30247;SDS011;17063;50.892;4.702;2023-07-02T08:40:15;14.10;;;5.67;;
30247;SDS011;17063;50.892;4.702;2023-07-02T08:42:46;14.40;;;7.03;;
30247;SDS011;17063;50.892;4.702;2023-07-02T08:45:16;18.23;;;7.33;;
30247;SDS011;17063;50.892;4.702;2023-07-02T08:47:43;17.43;;;6.77;;
30247;SDS011;17063;50.892;4.702;2023-07-02T08:50:12;20.57;;;7.50;;
30247;SDS011;17063;50.892;4.702;2023-07-02T08:52:40;19.83;;;7.60;;
30247;SDS011;17063;50.892;4.702;2023-07-02T08:55:09;18.60;;;7.73;;
30247;SDS011;17063;50.892;4.702;2023-07-02T08:57:36;16.73;;;7.53;;
30247;SDS011;17063;50.892;4.702;2023-07-02T09:00:09;17.13;;;7.50;;
30247;SDS011;17063;50.892;4.702;2023-07-02T09:02:37;20.83;;;8.00;;
30247;SDS011;17063;50.892;4.702;2023-07-02T09:05:04;18.03;;;8.10;;
30247;SDS011;17063;50.892;4.702;2023-07-02T09:07:32;17.33;;;7.47;;
30247;SDS011;17063;50.892;4.702;2023-07-02T09:10:10;16.47;;;7.50;;
30247;SDS011;17063;50.892;4.702;2023-07-02T09:12:36;18.43;;;7.73;;
30247;SDS011;17063;50.892;4.702;2023-07-02T09:15:05;15.43;;;7.63;;
30247;SDS011;17063;50.892;4.702;2023-07-02T09:17:34;18.27;;;7.60;;
30247;SDS011;17063;50.892;4.702;2023-07-02T09:20:05;19.77;;;7.77;;
30247;SDS011;17063;50.892;4.702;2023-07-02T09:22:36;22.37;;;8.00;;
30247;SDS011;17063;50.892;4.702;2023-07-02T09:25:05;16.93;;;7.90;;
30247;SDS011;17063;50.892;4.702;2023-07-02T09:27:36;19.83;;;8.13;;
30247;SDS011;17063;50.892;4.702;2023-07-02T09:30:09;21.87;;;8.40;;
30247;SDS011;17063;50.892;4.702;2023-07-02T09:32:42;21.80;;;8.80;;
30247;SDS011;17063;50.892;4.702;2023-07-02T09:35:11;23.93;;;8.50;;
30247;SDS011;17063;50.892;4.702;2023-07-02T09:37:39;17.53;;;8.83;;
30247;SDS011;17063;50.892;4.702;2023-07-02T09:40:09;23.60;;;8.77;;
30247;SDS011;17063;50.892;4.702;2023-07-02T09:42:36;19.80;;;8.20;;
30247;SDS011;17063;50.892;4.702;2023-07-02T09:45:05;19.53;;;8.60;;
30247;SDS011;17063;50.892;4.702;2023-07-02T09:47:35;20.73;;;8.90;;
30247;SDS011;17063;50.892;4.702;2023-07-02T09:50:12;22.20;;;8.97;;
30247;SDS011;17063;50.892;4.702;2023-07-02T09:52:41;27.70;;;9.90;;
30247;SDS011;17063;50.892;4.702;2023-07-02T09:55:08;29.47;;;10.57;;
30247;SDS011;17063;50.892;4.702;2023-07-02T09:57:35;28.67;;;10.30;;
30247;SDS011;17063;50.892;4.702;2023-07-02T10:00:04;26.57;;;10.07;;
30247;SDS011;17063;50.892;4.702;2023-07-02T10:02:33;25.03;;;9.80;;
30247;SDS011;17063;50.892;4.702;2023-07-02T10:05:00;22.93;;;9.07;;
30247;SDS011;17063;50.892;4.702;2023-07-02T10:07:28;23.37;;;9.60;;
30247;SDS011;17063;50.892;4.702;2023-07-02T10:09:56;21.70;;;9.50;;
30247;SDS011;17063;50.892;4.702;2023-07-02T10:12:27;29.07;;;10.57;;
30247;SDS011;17063;50.892;4.702;2023-07-02T10:14:57;17.97;;;9.63;;
30247;SDS011;17063;50.892;4.702;2023-07-02T10:17:25;20.83;;;9.10;;
30247;SDS011;17063;50.892;4.702;2023-07-02T10:19:56;19.63;;;8.57;;
30247;SDS011;17063;50.892;4.702;2023-07-02T10:22:24;23.03;;;10.03;;
30247;SDS011;17063;50.892;4.702;2023-07-02T10:24:54;21.03;;;9.27;;
30247;SDS011;17063;50.892;4.702;2023-07-02T10:27:40;22.37;;;9.70;;
30247;SDS011;17063;50.892;4.702;2023-07-02T10:30:08;25.47;;;10.03;;
30247;SDS011;17063;50.892;4.702;2023-07-02T10:32:36;24.73;;;10.40;;
30247;SDS011;17063;50.892;4.702;2023-07-02T10:35:14;22.00;;;9.10;;
30247;SDS011;17063;50.892;4.702;2023-07-02T10:37:42;23.43;;;9.10;;
30247;SDS011;17063;50.892;4.702;2023-07-02T10:40:09;24.53;;;10.13;;
30247;SDS011;17063;50.892;4.702;2023-07-02T10:42:55;25.93;;;9.70;;
30247;SDS011;17063;50.892;4.702;2023-07-02T10:45:30;23.73;;;9.47;;
30247;SDS011;17063;50.892;4.702;2023-07-02T10:47:58;20.73;;;8.80;;
30247;SDS011;17063;50.892;4.702;2023-07-02T10:50:26;23.50;;;9.87;;
30247;SDS011;17063;50.892;4.702;2023-07-02T10:52:53;29.77;;;9.33;;
30247;SDS011;17063;50.892;4.702;2023-07-02T10:55:21;26.50;;;9.77;;
30247;SDS011;17063;50.892;4.702;2023-07-02T10:58:01;22.70;;;9.20;;
30247;SDS011;17063;50.892;4.702;2023-07-02T11:00:32;20.80;;;9.40;;
30247;SDS011;17063;50.892;4.702;2023-07-02T11:02:59;24.83;;;9.43;;
30247;SDS011;17063;50.892;4.702;2023-07-02T11:05:27;20.10;;;9.30;;
30247;SDS011;17063;50.892;4.702;2023-07-02T11:08:07;23.40;;;9.27;;
30247;SDS011;17063;50.892;4.702;2023-07-02T11:10:34;25.63;;;9.97;;
30247;SDS011;17063;50.892;4.702;2023-07-02T11:13:18;24.67;;;9.17;;
30247;SDS011;17063;50.892;4.702;2023-07-02T11:15:46;21.87;;;9.53;;
30247;SDS011;17063;50.892;4.702;2023-07-02T11:18:15;24.23;;;9.83;;
30247;SDS011;17063;50.892;4.702;2023-07-02T11:20:44;21.70;;;9.97;;
30247;SDS011;17063;50.892;4.702;2023-07-02T11:23:18;24.37;;;9.60;;
30247;SDS011;17063;50.892;4.702;2023-07-02T11:25:59;20.17;;;8.67;;
30247;SDS011;17063;50.892;4.702;2023-07-02T11:28:30;23.03;;;9.00;;
30247;SDS011;17063;50.892;4.702;2023-07-02T11:31:04;26.90;;;9.53;;
30247;SDS011;17063;50.892;4.702;2023-07-02T11:33:36;27.53;;;9.73;;
30247;SDS011;17063;50.892;4.702;2023-07-02T11:36:04;23.20;;;8.17;;
30247;SDS011;17063;50.892;4.702;2023-07-02T11:38:36;19.27;;;9.13;;
30247;SDS011;17063;50.892;4.702;2023-07-02T11:41:03;23.70;;;9.43;;
30247;SDS011;17063;50.892;4.702;2023-07-02T11:43:31;23.43;;;8.73;;
30247;SDS011;17063;50.892;4.702;2023-07-02T11:45:58;22.27;;;9.27;;
30247;SDS011;17063;50.892;4.702;2023-07-02T11:48:25;24.03;;;8.40;;
30247;SDS011;17063;50.892;4.702;2023-07-02T11:50:52;17.87;;;8.20;;
30247;SDS011;17063;50.892;4.702;2023-07-02T11:53:19;20.63;;;9.53;;
30247;SDS011;17063;50.892;4.702;2023-07-02T11:55:46;29.13;;;8.73;;
30247;SDS011;17063;50.892;4.702;2023-07-02T11:58:13;21.30;;;8.37;;
30247;SDS011;17063;50.892;4.702;2023-07-02T12:00:40;19.77;;;8.27;;
30247;SDS011;17063;50.892;4.702;2023-07-02T12:03:06;20.00;;;8.00;;
30247;SDS011;17063;50.892;4.702;2023-07-02T12:05:33;20.13;;;7.67;;
30247;SDS011;17063;50.892;4.702;2023-07-02T12:08:01;22.03;;;8.40;;
30247;SDS011;17063;50.892;4.702;2023-07-02T12:10:29;22.13;;;7.90;;
30247;SDS011;17063;50.892;4.702;2023-07-02T12:12:56;20.43;;;8.70;;
30247;SDS011;17063;50.892;4.702;2023-07-02T12:15:23;19.13;;;8.37;;
30247;SDS011;17063;50.892;4.702;2023-07-02T12:17:50;16.77;;;7.77;;
30247;SDS011;17063;50.892;4.702;2023-07-02T12:20:17;23.43;;;8.60;;
30247;SDS011;17063;50.892;4.702;2023-07-02T12:22:55;19.57;;;7.93;;
30247;SDS011;17063;50.892;4.702;2023-07-02T12:25:26;18.33;;;7.90;;
30247;SDS011;17063;50.892;4.702;2023-07-02T12:27:53;19.83;;;7.67;;
30247;SDS011;17063;50.892;4.702;2023-07-02T12:30:20;18.90;;;7.73;;
30247;SDS011;17063;50.892;4.702;2023-07-02T12:32:47;19.27;;;7.80;;
30247;SDS011;17063;50.892;4.702;2023-07-02T12:35:14;20.83;;;8.27;;
30247;SDS011;17063;50.892;4.702;2023-07-02T12:37:44;18.43;;;8.17;;
30247;SDS011;17063;50.892;4.702;2023-07-02T12:40:12;20.87;;;8.53;;
30247;SDS011;17063;50.892;4.702;2023-07-02T12:42:40;20.60;;;8.63;;
30247;SDS011;17063;50.892;4.702;2023-07-02T12:45:08;16.20;;;7.93;;
30247;SDS011;17063;50.892;4.702;2023-07-02T12:47:35;16.40;;;8.17;;
30247;SDS011;17063;50.892;4.702;2023-07-02T12:50:03;19.77;;;8.53;;
30247;SDS011;17063;50.892;4.702;2023-07-02T12:52:31;19.33;;;8.87;;
30247;SDS011;17063;50.892;4.702;2023-07-02T12:54:59;17.60;;;8.13;;
30247;SDS011;17063;50.892;4.702;2023-07-02T12:57:26;19.27;;;8.57;;
30247;SDS011;17063;50.892;4.702;2023-07-02T12:59:53;22.37;;;8.47;;
30247;SDS011;17063;50.892;4.702;2023-07-02T13:02:23;21.00;;;8.07;;
30247;SDS011;17063;50.892;4.702;2023-07-02T13:04:50;19.80;;;8.33;;
30247;SDS011;17063;50.892;4.702;2023-07-02T13:07:27;18.83;;;8.40;;
30247;SDS011;17063;50.892;4.702;2023-07-02T13:09:56;20.50;;;8.10;;
30247;SDS011;17063;50.892;4.702;2023-07-02T13:12:23;17.40;;;7.53;;
30247;SDS011;17063;50.892;4.702;2023-07-02T13:14:50;19.20;;;7.87;;
30247;SDS011;17063;50.892;4.702;2023-07-02T13:17:16;20.57;;;8.20;;
30247;SDS011;17063;50.892;4.702;2023-07-02T13:19:43;19.93;;;8.57;;
30247;SDS011;17063;50.892;4.702;2023-07-02T13:22:10;19.57;;;7.70;;
30247;SDS011;17063;50.892;4.702;2023-07-02T13:24:37;13.07;;;7.57;;
30247;SDS011;17063;50.892;4.702;2023-07-02T13:27:08;17.50;;;7.77;;
30247;SDS011;17063;50.892;4.702;2023-07-02T13:29:38;18.53;;;7.73;;
30247;SDS011;17063;50.892;4.702;2023-07-02T13:32:11;19.87;;;7.30;;
30247;SDS011;17063;50.892;4.702;2023-07-02T13:34:38;17.20;;;7.93;;
30247;SDS011;17063;50.892;4.702;2023-07-02T13:37:05;17.70;;;7.83;;
30247;SDS011;17063;50.892;4.702;2023-07-02T13:39:32;18.07;;;7.90;;
30247;SDS011;17063;50.892;4.702;2023-07-02T13:41:59;20.93;;;7.97;;
30247;SDS011;17063;50.892;4.702;2023-07-02T13:44:26;20.70;;;7.77;;
30247;SDS011;17063;50.892;4.702;2023-07-02T13:46:53;17.47;;;7.70;;
30247;SDS011;17063;50.892;4.702;2023-07-02T13:49:20;19.00;;;7.13;;
30247;SDS011;17063;50.892;4.702;2023-07-02T13:51:47;17.97;;;7.27;;
30247;SDS011;17063;50.892;4.702;2023-07-02T13:54:16;17.10;;;7.47;;
30247;SDS011;17063;50.892;4.702;2023-07-02T13:56:45;15.27;;;6.90;;
30247;SDS011;17063;50.892;4.702;2023-07-02T13:59:16;19.27;;;7.10;;
30247;SDS011;17063;50.892;4.702;2023-07-02T14:01:44;19.57;;;7.70;;
30247;SDS011;17063;50.892;4.702;2023-07-02T14:04:11;20.10;;;7.73;;
30247;SDS011;17063;50.892;4.702;2023-07-02T14:06:39;20.67;;;7.20;;
30247;SDS011;17063;50.892;4.702;2023-07-02T14:09:07;17.17;;;7.30;;
30247;SDS011;17063;50.892;4.702;2023-07-02T14:11:34;17.77;;;7.57;;
30247;SDS011;17063;50.892;4.702;2023-07-02T14:14:04;13.80;;;6.90;;
30247;SDS011;17063;50.892;4.702;2023-07-02T14:16:32;17.80;;;7.43;;
30247;SDS011;17063;50.892;4.702;2023-07-02T14:18:59;20.17;;;7.50;;
30247;SDS011;17063;50.892;4.702;2023-07-02T14:21:26;18.53;;;7.70;;
30247;SDS011;17063;50.892;4.702;2023-07-02T14:23:53;15.43;;;6.97;;
30247;SDS011;17063;50.892;4.702;2023-07-02T14:26:20;15.40;;;7.07;;
30247;SDS011;17063;50.892;4.702;2023-07-02T14:28:46;15.67;;;7.63;;
30247;SDS011;17063;50.892;4.702;2023-07-02T14:31:13;18.10;;;7.20;;
30247;SDS011;17063;50.892;4.702;2023-07-02T14:33:40;16.10;;;7.57;;